sensor_id;sensor_type;location;lat;lon;timestamp;temperature;humidity
7317;DHT22;3699;51.462;6.696;2024-01-30T00:01:15;10.40;99.90
7317;DHT22;3699;51.462;6.696;2024-01-30T00:03:42;10.00;99.90
7317;DHT22;3699;51.462;6.696;2024-01-30T00:06:09;10.00;99.90
7317;DHT22;3699;51.462;6.696;2024-01-30T00:08:37;9.70;99.90
7317;DHT22;3699;51.462;6.696;2024-01-30T00:11:04;10.10;99.90
7317;DHT22;3699;51.462;6.696;2024-01-30T00:13:30;10.30;99.90
7317;DHT22;3699;51.462;6.696;2024-01-30T00:15:57;10.30;99.90
7317;DHT22;3699;51.462;6.696;2024-01-30T00:18:24;10.00;99.90
7317;DHT22;3699;51.462;6.696;2024-01-30T00:20:51;10.50;99.90
7317;DHT22;3699;51.462;6.696;2024-01-30T00:23:18;9.90;99.90
7317;DHT22;3699;51.462;6.696;2024-01-30T00:25:46;9.80;99.90
7317;DHT22;3699;51.462;6.696;2024-01-30T00:28:13;10.00;99.90
7317;DHT22;3699;51.462;6.696;2024-01-30T00:30:39;9.80;99.90
7317;DHT22;3699;51.462;6.696;2024-01-30T00:33:06;9.80;99.90
7317;DHT22;3699;51.462;6.696;2024-01-30T00:35:33;9.70;99.90
7317;DHT22;3699;51.462;6.696;2024-01-30T00:38:00;10.00;99.90
7317;DHT22;3699;51.462;6.696;2024-01-30T00:40:27;9.70;99.90
7317;DHT22;3699;51.462;6.696;2024-01-30T00:42:55;9.70;99.90
7317;DHT22;3699;51.462;6.696;2024-01-30T00:45:21;9.60;99.90
7317;DHT22;3699;51.462;6.696;2024-01-30T00:47:49;9.70;99.90
7317;DHT22;3699;51.462;6.696;2024-01-30T00:50:15;9.60;99.90
7317;DHT22;3699;51.462;6.696;2024-01-30T00:52:42;9.80;99.90
7317;DHT22;3699;51.462;6.696;2024-01-30T00:55:10;9.60;99.90
7317;DHT22;3699;51.462;6.696;2024-01-30T00:57:37;9.70;99.90
7317;DHT22;3699;51.462;6.696;2024-01-30T01:00:08;9.60;99.90
7317;DHT22;3699;51.462;6.696;2024-01-30T01:02:35;9.70;99.90
7317;DHT22;3699;51.462;6.696;2024-01-30T01:05:02;9.80;99.90
7317;DHT22;3699;51.462;6.696;2024-01-30T01:07:30;9.70;99.90
7317;DHT22;3699;51.462;6.696;2024-01-30T01:09:56;9.70;99.90
7317;DHT22;3699;51.462;6.696;2024-01-30T01:12:23;9.80;99.90
7317;DHT22;3699;51.462;6.696;2024-01-30T01:14:50;9.60;99.90
7317;DHT22;3699;51.462;6.696;2024-01-30T01:17:18;9.60;99.90
7317;DHT22;3699;51.462;6.696;2024-01-30T01:19:45;9.70;99.90
7317;DHT22;3699;51.462;6.696;2024-01-30T01:22:11;9.80;99.90
7317;DHT22;3699;51.462;6.696;2024-01-30T01:24:38;9.60;99.90
7317;DHT22;3699;51.462;6.696;2024-01-30T01:27:05;9.70;99.90
7317;DHT22;3699;51.462;6.696;2024-01-30T01:29:32;9.80;99.90
7317;DHT22;3699;51.462;6.696;2024-01-30T01:31:59;9.80;99.90
7317;DHT22;3699;51.462;6.696;2024-01-30T01:34:27;10.20;99.90
7317;DHT22;3699;51.462;6.696;2024-01-30T01:36:53;9.70;99.90
7317;DHT22;3699;51.462;6.696;2024-01-30T01:39:21;9.70;99.90
7317;DHT22;3699;51.462;6.696;2024-01-30T01:41:49;9.60;99.90
7317;DHT22;3699;51.462;6.696;2024-01-30T01:44:15;9.80;99.90
7317;DHT22;3699;51.462;6.696;2024-01-30T01:46:42;9.70;99.90
7317;DHT22;3699;51.462;6.696;2024-01-30T01:49:09;9.80;99.90
7317;DHT22;3699;51.462;6.696;2024-01-30T01:51:38;9.70;99.90
7317;DHT22;3699;51.462;6.696;2024-01-30T01:54:06;10.00;99.90
7317;DHT22;3699;51.462;6.696;2024-01-30T01:56:34;9.60;99.90
7317;DHT22;3699;51.462;6.696;2024-01-30T01:59:06;9.60;99.90
7317;DHT22;3699;51.462;6.696;2024-01-30T02:01:34;9.70;99.90
7317;DHT22;3699;51.462;6.696;2024-01-30T02:04:00;9.90;99.90
7317;DHT22;3699;51.462;6.696;2024-01-30T02:06:32;9.70;99.90
7317;DHT22;3699;51.462;6.696;2024-01-30T02:09:00;9.60;99.90
7317;DHT22;3699;51.462;6.696;2024-01-30T02:11:27;9.80;99.90
7317;DHT22;3699;51.462;6.696;2024-01-30T02:13:54;9.70;99.90
7317;DHT22;3699;51.462;6.696;2024-01-30T02:16:21;9.60;99.90
7317;DHT22;3699;51.462;6.696;2024-01-30T02:18:48;9.70;99.90
7317;DHT22;3699;51.462;6.696;2024-01-30T02:21:16;9.60;99.90
7317;DHT22;3699;51.462;6.696;2024-01-30T02:23:43;9.60;99.90
7317;DHT22;3699;51.462;6.696;2024-01-30T02:26:10;9.50;99.90
7317;DHT22;3699;51.462;6.696;2024-01-30T02:28:37;9.60;99.90
7317;DHT22;3699;51.462;6.696;2024-01-30T02:31:04;9.70;99.90
7317;DHT22;3699;51.462;6.696;2024-01-30T02:33:31;9.50;99.90
7317;DHT22;3699;51.462;6.696;2024-01-30T02:35:58;9.50;99.90
7317;DHT22;3699;51.462;6.696;2024-01-30T02:38:26;9.50;99.90
7317;DHT22;3699;51.462;6.696;2024-01-30T02:40:54;9.60;99.90
7317;DHT22;3699;51.462;6.696;2024-01-30T02:43:21;9.50;99.90
7317;DHT22;3699;51.462;6.696;2024-01-30T02:45:47;9.10;99.90
7317;DHT22;3699;51.462;6.696;2024-01-30T02:48:14;9.40;99.90
7317;DHT22;3699;51.462;6.696;2024-01-30T02:50:41;9.40;99.90
7317;DHT22;3699;51.462;6.696;2024-01-30T02:53:08;9.40;99.90
7317;DHT22;3699;51.462;6.696;2024-01-30T02:55:36;9.50;99.90
7317;DHT22;3699;51.462;6.696;2024-01-30T02:58:02;9.50;99.90
7317;DHT22;3699;51.462;6.696;2024-01-30T03:00:29;9.50;99.90
7317;DHT22;3699;51.462;6.696;2024-01-30T03:02:56;9.40;99.90
7317;DHT22;3699;51.462;6.696;2024-01-30T03:05:23;9.40;99.90
7317;DHT22;3699;51.462;6.696;2024-01-30T03:07:50;9.40;99.90
7317;DHT22;3699;51.462;6.696;2024-01-30T03:10:16;10.00;99.90
7317;DHT22;3699;51.462;6.696;2024-01-30T03:12:44;9.40;99.90
7317;DHT22;3699;51.462;6.696;2024-01-30T03:15:11;9.40;99.90
7317;DHT22;3699;51.462;6.696;2024-01-30T03:17:38;9.30;99.90
7317;DHT22;3699;51.462;6.696;2024-01-30T03:20:06;9.40;99.90
7317;DHT22;3699;51.462;6.696;2024-01-30T03:22:33;9.50;99.90
7317;DHT22;3699;51.462;6.696;2024-01-30T03:24:59;9.30;99.90
7317;DHT22;3699;51.462;6.696;2024-01-30T03:27:26;9.40;99.90
7317;DHT22;3699;51.462;6.696;2024-01-30T03:29:54;9.40;99.90
7317;DHT22;3699;51.462;6.696;2024-01-30T03:32:21;9.40;99.90
7317;DHT22;3699;51.462;6.696;2024-01-30T03:34:48;9.40;99.90
7317;DHT22;3699;51.462;6.696;2024-01-30T03:37:14;9.40;99.90
7317;DHT22;3699;51.462;6.696;2024-01-30T03:39:41;9.50;99.90
7317;DHT22;3699;51.462;6.696;2024-01-30T03:42:08;9.50;99.90
7317;DHT22;3699;51.462;6.696;2024-01-30T03:44:35;9.40;99.90
7317;DHT22;3699;51.462;6.696;2024-01-30T03:47:03;9.50;99.90
7317;DHT22;3699;51.462;6.696;2024-01-30T03:49:30;9.70;99.90
7317;DHT22;3699;51.462;6.696;2024-01-30T03:51:56;9.40;99.90
7317;DHT22;3699;51.462;6.696;2024-01-30T03:54:23;9.40;99.90
7317;DHT22;3699;51.462;6.696;2024-01-30T03:56:50;9.60;99.90
7317;DHT22;3699;51.462;6.696;2024-01-30T03:59:16;9.40;99.90
7317;DHT22;3699;51.462;6.696;2024-01-30T04:01:47;9.40;99.90
7317;DHT22;3699;51.462;6.696;2024-01-30T04:04:15;9.40;99.90
7317;DHT22;3699;51.462;6.696;2024-01-30T04:06:42;9.40;99.90
7317;DHT22;3699;51.462;6.696;2024-01-30T04:09:09;9.40;99.90
7317;DHT22;3699;51.462;6.696;2024-01-30T04:11:36;9.40;99.90
7317;DHT22;3699;51.462;6.696;2024-01-30T04:14:03;9.50;99.90
7317;DHT22;3699;51.462;6.696;2024-01-30T04:16:30;9.30;99.90
7317;DHT22;3699;51.462;6.696;2024-01-30T04:18:57;9.50;99.90
7317;DHT22;3699;51.462;6.696;2024-01-30T04:21:25;9.30;99.90
7317;DHT22;3699;51.462;6.696;2024-01-30T04:23:53;9.30;99.90
7317;DHT22;3699;51.462;6.696;2024-01-30T04:26:20;9.30;99.90
7317;DHT22;3699;51.462;6.696;2024-01-30T04:28:46;9.60;99.90
7317;DHT22;3699;51.462;6.696;2024-01-30T04:31:13;9.40;99.90
7317;DHT22;3699;51.462;6.696;2024-01-30T04:33:40;9.40;99.90
7317;DHT22;3699;51.462;6.696;2024-01-30T04:36:08;9.30;99.90
7317;DHT22;3699;51.462;6.696;2024-01-30T04:38:37;9.30;99.90
7317;DHT22;3699;51.462;6.696;2024-01-30T04:41:05;9.20;99.90
7317;DHT22;3699;51.462;6.696;2024-01-30T04:43:32;9.40;99.90
7317;DHT22;3699;51.462;6.696;2024-01-30T04:45:58;9.50;99.90
7317;DHT22;3699;51.462;6.696;2024-01-30T04:48:25;9.30;99.90
7317;DHT22;3699;51.462;6.696;2024-01-30T04:50:52;9.30;99.90
7317;DHT22;3699;51.462;6.696;2024-01-30T04:53:19;9.30;99.90
7317;DHT22;3699;51.462;6.696;2024-01-30T04:55:47;9.30;99.90
7317;DHT22;3699;51.462;6.696;2024-01-30T04:58:13;9.40;99.90
7317;DHT22;3699;51.462;6.696;2024-01-30T05:00:40;9.40;99.90
7317;DHT22;3699;51.462;6.696;2024-01-30T05:03:07;9.30;99.90
7317;DHT22;3699;51.462;6.696;2024-01-30T05:05:33;9.30;99.90
7317;DHT22;3699;51.462;6.696;2024-01-30T05:08:00;9.30;99.90
7317;DHT22;3699;51.462;6.696;2024-01-30T05:10:27;9.40;99.90
7317;DHT22;3699;51.462;6.696;2024-01-30T05:12:56;9.20;99.90
7317;DHT22;3699;51.462;6.696;2024-01-30T05:15:23;9.20;99.90
7317;DHT22;3699;51.462;6.696;2024-01-30T05:17:49;9.40;99.90
7317;DHT22;3699;51.462;6.696;2024-01-30T05:20:16;9.60;99.90
7317;DHT22;3699;51.462;6.696;2024-01-30T05:22:43;9.30;99.90
7317;DHT22;3699;51.462;6.696;2024-01-30T05:25:11;9.30;99.90
7317;DHT22;3699;51.462;6.696;2024-01-30T05:27:38;9.40;99.90
7317;DHT22;3699;51.462;6.696;2024-01-30T05:30:07;9.40;99.90
7317;DHT22;3699;51.462;6.696;2024-01-30T05:32:34;9.50;99.90
7317;DHT22;3699;51.462;6.696;2024-01-30T05:35:01;9.40;99.90
7317;DHT22;3699;51.462;6.696;2024-01-30T05:37:28;9.40;99.90
7317;DHT22;3699;51.462;6.696;2024-01-30T05:39:55;9.40;99.90
7317;DHT22;3699;51.462;6.696;2024-01-30T05:42:22;9.40;99.90
7317;DHT22;3699;51.462;6.696;2024-01-30T05:44:48;9.40;99.90
7317;DHT22;3699;51.462;6.696;2024-01-30T05:47:16;9.40;99.90
7317;DHT22;3699;51.462;6.696;2024-01-30T05:49:43;9.60;99.90
7317;DHT22;3699;51.462;6.696;2024-01-30T05:52:10;9.40;99.90
7317;DHT22;3699;51.462;6.696;2024-01-30T05:54:36;9.40;99.90
7317;DHT22;3699;51.462;6.696;2024-01-30T05:57:03;9.40;99.90
7317;DHT22;3699;51.462;6.696;2024-01-30T05:59:30;9.30;99.90
7317;DHT22;3699;51.462;6.696;2024-01-30T06:01:57;9.60;99.90
7317;DHT22;3699;51.462;6.696;2024-01-30T06:04:25;9.40;99.90
7317;DHT22;3699;51.462;6.696;2024-01-30T06:06:52;9.30;99.90
7317;DHT22;3699;51.462;6.696;2024-01-30T06:09:18;9.50;99.90
7317;DHT22;3699;51.462;6.696;2024-01-30T06:11:45;9.10;99.90
7317;DHT22;3699;51.462;6.696;2024-01-30T06:14:12;9.40;99.90
7317;DHT22;3699;51.462;6.696;2024-01-30T06:16:39;9.30;99.90
7317;DHT22;3699;51.462;6.696;2024-01-30T06:19:05;9.30;99.90
7317;DHT22;3699;51.462;6.696;2024-01-30T06:21:33;9.30;99.90
7317;DHT22;3699;51.462;6.696;2024-01-30T06:24:02;9.40;99.90
7317;DHT22;3699;51.462;6.696;2024-01-30T06:26:29;9.30;99.90
7317;DHT22;3699;51.462;6.696;2024-01-30T06:28:55;9.40;99.90
7317;DHT22;3699;51.462;6.696;2024-01-30T06:31:22;9.30;99.90
7317;DHT22;3699;51.462;6.696;2024-01-30T06:33:49;9.40;99.90
7317;DHT22;3699;51.462;6.696;2024-01-30T06:36:16;9.30;99.90
7317;DHT22;3699;51.462;6.696;2024-01-30T06:38:44;9.60;99.90
7317;DHT22;3699;51.462;6.696;2024-01-30T06:41:11;9.80;99.90
7317;DHT22;3699;51.462;6.696;2024-01-30T06:43:38;9.50;99.90
7317;DHT22;3699;51.462;6.696;2024-01-30T06:46:04;9.50;99.90
7317;DHT22;3699;51.462;6.696;2024-01-30T06:48:31;9.40;99.90
7317;DHT22;3699;51.462;6.696;2024-01-30T06:50:58;9.40;99.90
7317;DHT22;3699;51.462;6.696;2024-01-30T06:53:25;9.50;99.90
7317;DHT22;3699;51.462;6.696;2024-01-30T06:55:53;9.50;99.90
7317;DHT22;3699;51.462;6.696;2024-01-30T06:58:20;9.40;99.90
7317;DHT22;3699;51.462;6.696;2024-01-30T07:00:47;9.60;99.90
7317;DHT22;3699;51.462;6.696;2024-01-30T07:03:13;9.80;99.90
7317;DHT22;3699;51.462;6.696;2024-01-30T07:05:40;9.50;99.90
7317;DHT22;3699;51.462;6.696;2024-01-30T07:08:07;9.50;99.90
7317;DHT22;3699;51.462;6.696;2024-01-30T07:10:34;9.80;99.90
7317;DHT22;3699;51.462;6.696;2024-01-30T07:13:02;9.60;99.90
7317;DHT22;3699;51.462;6.696;2024-01-30T07:15:29;9.70;99.90
7317;DHT22;3699;51.462;6.696;2024-01-30T07:17:56;10.00;99.90
7317;DHT22;3699;51.462;6.696;2024-01-30T07:20:23;9.60;99.90
7317;DHT22;3699;51.462;6.696;2024-01-30T07:22:50;9.80;99.90
7317;DHT22;3699;51.462;6.696;2024-01-30T07:25:16;9.70;99.90
7317;DHT22;3699;51.462;6.696;2024-01-30T07:27:43;9.70;99.90
7317;DHT22;3699;51.462;6.696;2024-01-30T07:30:12;9.70;99.90
7317;DHT22;3699;51.462;6.696;2024-01-30T07:32:39;9.70;99.90
7317;DHT22;3699;51.462;6.696;2024-01-30T07:35:06;9.60;99.90
7317;DHT22;3699;51.462;6.696;2024-01-30T07:37:33;9.80;99.90
7317;DHT22;3699;51.462;6.696;2024-01-30T07:40:00;9.60;99.90
7317;DHT22;3699;51.462;6.696;2024-01-30T07:42:27;9.70;99.90
7317;DHT22;3699;51.462;6.696;2024-01-30T07:44:54;9.70;99.90
7317;DHT22;3699;51.462;6.696;2024-01-30T07:47:22;9.70;99.90
7317;DHT22;3699;51.462;6.696;2024-01-30T07:49:48;9.70;99.90
7317;DHT22;3699;51.462;6.696;2024-01-30T07:52:15;9.80;99.90
7317;DHT22;3699;51.462;6.696;2024-01-30T07:54:42;9.80;99.90
7317;DHT22;3699;51.462;6.696;2024-01-30T07:57:09;9.80;99.90
7317;DHT22;3699;51.462;6.696;2024-01-30T07:59:35;9.80;99.90
7317;DHT22;3699;51.462;6.696;2024-01-30T08:02:02;10.20;99.90
7317;DHT22;3699;51.462;6.696;2024-01-30T08:04:30;9.90;99.90
7317;DHT22;3699;51.462;6.696;2024-01-30T08:06:57;10.00;99.90
7317;DHT22;3699;51.462;6.696;2024-01-30T08:09:24;9.80;99.90
7317;DHT22;3699;51.462;6.696;2024-01-30T08:11:50;9.90;99.90
7317;DHT22;3699;51.462;6.696;2024-01-30T08:14:17;9.90;99.90
7317;DHT22;3699;51.462;6.696;2024-01-30T08:16:44;10.00;99.90
7317;DHT22;3699;51.462;6.696;2024-01-30T08:19:10;10.10;99.90
7317;DHT22;3699;51.462;6.696;2024-01-30T08:21:39;10.10;99.90
7317;DHT22;3699;51.462;6.696;2024-01-30T08:24:06;10.00;99.90
7317;DHT22;3699;51.462;6.696;2024-01-30T08:26:33;10.20;99.90
7317;DHT22;3699;51.462;6.696;2024-01-30T08:29:01;10.30;99.90
7317;DHT22;3699;51.462;6.696;2024-01-30T08:31:27;10.40;99.90
7317;DHT22;3699;51.462;6.696;2024-01-30T08:33:54;10.20;99.90
7317;DHT22;3699;51.462;6.696;2024-01-30T08:36:21;10.20;99.90
7317;DHT22;3699;51.462;6.696;2024-01-30T08:38:49;10.20;99.90
7317;DHT22;3699;51.462;6.696;2024-01-30T08:41:16;10.30;99.90
7317;DHT22;3699;51.462;6.696;2024-01-30T08:43:42;10.30;99.90
7317;DHT22;3699;51.462;6.696;2024-01-30T08:46:10;10.40;99.90
7317;DHT22;3699;51.462;6.696;2024-01-30T08:48:37;10.40;99.90
7317;DHT22;3699;51.462;6.696;2024-01-30T08:51:04;10.40;99.90
7317;DHT22;3699;51.462;6.696;2024-01-30T08:53:34;10.40;99.90
7317;DHT22;3699;51.462;6.696;2024-01-30T08:56:02;10.70;99.90
7317;DHT22;3699;51.462;6.696;2024-01-30T08:58:29;10.40;99.90
7317;DHT22;3699;51.462;6.696;2024-01-30T09:00:56;10.60;99.90
7317;DHT22;3699;51.462;6.696;2024-01-30T09:03:22;10.60;99.90
7317;DHT22;3699;51.462;6.696;2024-01-30T09:05:49;10.40;99.90
7317;DHT22;3699;51.462;6.696;2024-01-30T09:08:16;10.50;99.90
7317;DHT22;3699;51.462;6.696;2024-01-30T09:10:42;10.60;99.90
7317;DHT22;3699;51.462;6.696;2024-01-30T09:13:11;10.80;99.90
7317;DHT22;3699;51.462;6.696;2024-01-30T09:15:38;10.50;99.90
7317;DHT22;3699;51.462;6.696;2024-01-30T09:18:05;10.40;99.90
7317;DHT22;3699;51.462;6.696;2024-01-30T09:20:32;10.50;99.90
7317;DHT22;3699;51.462;6.696;2024-01-30T09:22:59;10.70;99.90
7317;DHT22;3699;51.462;6.696;2024-01-30T09:25:25;10.80;99.90
7317;DHT22;3699;51.462;6.696;2024-01-30T09:27:52;10.90;99.90
7317;DHT22;3699;51.462;6.696;2024-01-30T09:30:20;10.90;99.90
7317;DHT22;3699;51.462;6.696;2024-01-30T09:32:47;10.80;99.90
7317;DHT22;3699;51.462;6.696;2024-01-30T09:35:14;11.10;99.90
7317;DHT22;3699;51.462;6.696;2024-01-30T09:37:41;10.80;99.90
7317;DHT22;3699;51.462;6.696;2024-01-30T09:40:08;10.90;99.90
7317;DHT22;3699;51.462;6.696;2024-01-30T09:42:36;11.00;99.90
7317;DHT22;3699;51.462;6.696;2024-01-30T09:45:04;11.10;99.90
7317;DHT22;3699;51.462;6.696;2024-01-30T09:47:38;11.10;99.90
7317;DHT22;3699;51.462;6.696;2024-01-30T09:50:07;11.40;99.90
7317;DHT22;3699;51.462;6.696;2024-01-30T09:52:33;11.20;99.90
7317;DHT22;3699;51.462;6.696;2024-01-30T09:55:00;11.40;99.90
7317;DHT22;3699;51.462;6.696;2024-01-30T09:57:28;11.40;99.90
7317;DHT22;3699;51.462;6.696;2024-01-30T09:59:54;11.60;99.90
7317;DHT22;3699;51.462;6.696;2024-01-30T10:02:21;11.90;99.90
7317;DHT22;3699;51.462;6.696;2024-01-30T10:04:51;11.80;99.90
7317;DHT22;3699;51.462;6.696;2024-01-30T10:07:18;11.60;99.90
7317;DHT22;3699;51.462;6.696;2024-01-30T10:09:45;12.10;99.90
7317;DHT22;3699;51.462;6.696;2024-01-30T10:12:12;12.00;99.90
7317;DHT22;3699;51.462;6.696;2024-01-30T10:14:39;12.00;99.90
7317;DHT22;3699;51.462;6.696;2024-01-30T10:17:07;12.00;99.90
7317;DHT22;3699;51.462;6.696;2024-01-30T10:19:34;12.10;99.90
7317;DHT22;3699;51.462;6.696;2024-01-30T10:22:03;11.80;99.90
7317;DHT22;3699;51.462;6.696;2024-01-30T10:24:30;12.10;99.90
7317;DHT22;3699;51.462;6.696;2024-01-30T10:26:57;12.10;99.90
7317;DHT22;3699;51.462;6.696;2024-01-30T10:29:24;12.10;99.90
7317;DHT22;3699;51.462;6.696;2024-01-30T10:32:01;12.20;99.90
7317;DHT22;3699;51.462;6.696;2024-01-30T10:34:28;12.10;99.90
7317;DHT22;3699;51.462;6.696;2024-01-30T10:37:00;12.10;99.90
7317;DHT22;3699;51.462;6.696;2024-01-30T10:39:36;12.20;99.90
7317;DHT22;3699;51.462;6.696;2024-01-30T10:42:05;12.30;99.90
7317;DHT22;3699;51.462;6.696;2024-01-30T10:44:37;12.20;99.90
7317;DHT22;3699;51.462;6.696;2024-01-30T10:47:06;12.10;99.90
7317;DHT22;3699;51.462;6.696;2024-01-30T10:49:38;12.30;99.90
7317;DHT22;3699;51.462;6.696;2024-01-30T10:52:06;12.40;99.90
7317;DHT22;3699;51.462;6.696;2024-01-30T10:54:36;12.50;99.90
7317;DHT22;3699;51.462;6.696;2024-01-30T10:57:04;12.30;99.90
7317;DHT22;3699;51.462;6.696;2024-01-30T10:59:32;12.40;99.90
7317;DHT22;3699;51.462;6.696;2024-01-30T11:02:00;12.40;99.90
7317;DHT22;3699;51.462;6.696;2024-01-30T11:04:26;12.40;99.90
7317;DHT22;3699;51.462;6.696;2024-01-30T11:06:54;12.40;99.90
7317;DHT22;3699;51.462;6.696;2024-01-30T11:09:20;12.40;99.90
7317;DHT22;3699;51.462;6.696;2024-01-30T11:11:56;12.50;99.90
7317;DHT22;3699;51.462;6.696;2024-01-30T11:14:25;12.60;99.90
7317;DHT22;3699;51.462;6.696;2024-01-30T11:16:52;12.60;99.90
7317;DHT22;3699;51.462;6.696;2024-01-30T11:19:23;12.60;99.90
7317;DHT22;3699;51.462;6.696;2024-01-30T11:21:51;12.70;99.90
7317;DHT22;3699;51.462;6.696;2024-01-30T11:24:19;12.70;99.90
7317;DHT22;3699;51.462;6.696;2024-01-30T11:26:48;12.70;99.90
7317;DHT22;3699;51.462;6.696;2024-01-30T11:29:17;12.70;99.90
7317;DHT22;3699;51.462;6.696;2024-01-30T11:31:52;12.70;99.90
7317;DHT22;3699;51.462;6.696;2024-01-30T11:34:19;12.60;99.90
7317;DHT22;3699;51.462;6.696;2024-01-30T11:36:51;12.70;99.90
7317;DHT22;3699;51.462;6.696;2024-01-30T11:39:20;12.60;99.90
7317;DHT22;3699;51.462;6.696;2024-01-30T11:41:48;12.60;99.90
7317;DHT22;3699;51.462;6.696;2024-01-30T11:44:18;12.60;99.90
7317;DHT22;3699;51.462;6.696;2024-01-30T11:46:46;12.60;99.90
7317;DHT22;3699;51.462;6.696;2024-01-30T11:49:13;12.60;99.90
7317;DHT22;3699;51.462;6.696;2024-01-30T11:51:40;12.60;99.90
7317;DHT22;3699;51.462;6.696;2024-01-30T11:54:07;12.50;99.90
7317;DHT22;3699;51.462;6.696;2024-01-30T11:56:34;12.50;99.90
7317;DHT22;3699;51.462;6.696;2024-01-30T11:59:01;12.50;99.90
7317;DHT22;3699;51.462;6.696;2024-01-30T12:01:29;12.50;99.90
7317;DHT22;3699;51.462;6.696;2024-01-30T12:03:57;12.80;99.90
7317;DHT22;3699;51.462;6.696;2024-01-30T12:06:23;12.50;99.90
7317;DHT22;3699;51.462;6.696;2024-01-30T12:09:00;12.50;99.90
7317;DHT22;3699;51.462;6.696;2024-01-30T12:11:29;12.50;99.90
7317;DHT22;3699;51.462;6.696;2024-01-30T12:13:56;12.50;99.90
7317;DHT22;3699;51.462;6.696;2024-01-30T12:16:23;12.50;99.90
7317;DHT22;3699;51.462;6.696;2024-01-30T12:18:59;12.50;99.90
7317;DHT22;3699;51.462;6.696;2024-01-30T12:21:26;12.60;99.90
7317;DHT22;3699;51.462;6.696;2024-01-30T12:23:53;12.60;99.90
7317;DHT22;3699;51.462;6.696;2024-01-30T12:26:20;12.50;99.90
7317;DHT22;3699;51.462;6.696;2024-01-30T12:28:50;12.60;99.90
7317;DHT22;3699;51.462;6.696;2024-01-30T12:31:17;12.60;99.90
7317;DHT22;3699;51.462;6.696;2024-01-30T12:33:43;12.60;99.90
7317;DHT22;3699;51.462;6.696;2024-01-30T12:36:12;12.60;99.90
7317;DHT22;3699;51.462;6.696;2024-01-30T12:38:39;12.40;99.90
7317;DHT22;3699;51.462;6.696;2024-01-30T12:41:07;12.60;99.90
7317;DHT22;3699;51.462;6.696;2024-01-30T12:46:04;12.70;99.90
7317;DHT22;3699;51.462;6.696;2024-01-30T12:48:31;12.70;99.90
7317;DHT22;3699;51.462;6.696;2024-01-30T12:50:58;12.70;99.90
7317;DHT22;3699;51.462;6.696;2024-01-30T12:53:26;12.70;99.90
7317;DHT22;3699;51.462;6.696;2024-01-30T12:55:52;12.70;99.90
7317;DHT22;3699;51.462;6.696;2024-01-30T12:58:19;12.70;99.90
7317;DHT22;3699;51.462;6.696;2024-01-30T13:00:46;12.70;99.90
7317;DHT22;3699;51.462;6.696;2024-01-30T13:03:13;12.80;99.90
7317;DHT22;3699;51.462;6.696;2024-01-30T13:05:43;12.70;99.90
7317;DHT22;3699;51.462;6.696;2024-01-30T13:08:09;12.70;99.90
7317;DHT22;3699;51.462;6.696;2024-01-30T13:10:37;12.80;99.90
7317;DHT22;3699;51.462;6.696;2024-01-30T13:13:04;12.90;99.90
7317;DHT22;3699;51.462;6.696;2024-01-30T13:15:31;12.90;99.90
7317;DHT22;3699;51.462;6.696;2024-01-30T13:17:58;13.00;99.90
7317;DHT22;3699;51.462;6.696;2024-01-30T13:20:24;13.00;99.90
7317;DHT22;3699;51.462;6.696;2024-01-30T13:22:51;13.10;99.90
7317;DHT22;3699;51.462;6.696;2024-01-30T13:25:18;13.20;99.90
7317;DHT22;3699;51.462;6.696;2024-01-30T13:27:46;13.30;99.90
7317;DHT22;3699;51.462;6.696;2024-01-30T13:30:13;13.40;99.90
7317;DHT22;3699;51.462;6.696;2024-01-30T13:32:39;13.40;99.90
7317;DHT22;3699;51.462;6.696;2024-01-30T13:35:09;13.50;99.90
7317;DHT22;3699;51.462;6.696;2024-01-30T13:37:36;13.40;99.90
7317;DHT22;3699;51.462;6.696;2024-01-30T13:40:05;13.40;99.90
7317;DHT22;3699;51.462;6.696;2024-01-30T13:42:33;13.40;99.90
7317;DHT22;3699;51.462;6.696;2024-01-30T13:45:01;13.40;99.90
7317;DHT22;3699;51.462;6.696;2024-01-30T13:47:28;13.40;99.90
7317;DHT22;3699;51.462;6.696;2024-01-30T13:52:22;13.30;99.90
7317;DHT22;3699;51.462;6.696;2024-01-30T13:54:49;13.30;99.90
7317;DHT22;3699;51.462;6.696;2024-01-30T13:57:16;13.20;99.90
7317;DHT22;3699;51.462;6.696;2024-01-30T13:59:42;13.30;99.90
7317;DHT22;3699;51.462;6.696;2024-01-30T14:02:10;13.20;99.90
7317;DHT22;3699;51.462;6.696;2024-01-30T14:04:37;13.30;99.90
7317;DHT22;3699;51.462;6.696;2024-01-30T14:07:04;13.30;99.90
7317;DHT22;3699;51.462;6.696;2024-01-30T14:09:32;13.30;99.90
7317;DHT22;3699;51.462;6.696;2024-01-30T14:11:59;13.40;99.90
7317;DHT22;3699;51.462;6.696;2024-01-30T14:14:29;13.40;99.90
7317;DHT22;3699;51.462;6.696;2024-01-30T14:16:55;13.80;99.90
7317;DHT22;3699;51.462;6.696;2024-01-30T14:19:24;13.40;99.90
7317;DHT22;3699;51.462;6.696;2024-01-30T14:21:50;13.60;99.90
7317;DHT22;3699;51.462;6.696;2024-01-30T14:24:17;13.70;99.90
7317;DHT22;3699;51.462;6.696;2024-01-30T14:26:44;13.60;99.90
7317;DHT22;3699;51.462;6.696;2024-01-30T14:29:11;13.60;99.90
7317;DHT22;3699;51.462;6.696;2024-01-30T14:31:37;13.70;99.90
7317;DHT22;3699;51.462;6.696;2024-01-30T14:34:04;13.60;99.90
7317;DHT22;3699;51.462;6.696;2024-01-30T14:36:32;13.60;99.90
7317;DHT22;3699;51.462;6.696;2024-01-30T14:38:59;13.60;99.90
7317;DHT22;3699;51.462;6.696;2024-01-30T14:41:26;13.50;99.90
7317;DHT22;3699;51.462;6.696;2024-01-30T14:43:53;13.20;99.90
7317;DHT22;3699;51.462;6.696;2024-01-30T14:46:21;13.20;99.90
7317;DHT22;3699;51.462;6.696;2024-01-30T14:48:48;13.10;99.90
7317;DHT22;3699;51.462;6.696;2024-01-30T14:51:16;13.10;99.90
7317;DHT22;3699;51.462;6.696;2024-01-30T14:53:44;13.10;99.90
7317;DHT22;3699;51.462;6.696;2024-01-30T14:56:11;13.00;99.90
7317;DHT22;3699;51.462;6.696;2024-01-30T14:58:38;13.00;99.90
7317;DHT22;3699;51.462;6.696;2024-01-30T15:01:05;12.90;99.90
7317;DHT22;3699;51.462;6.696;2024-01-30T15:03:32;12.70;99.90
7317;DHT22;3699;51.462;6.696;2024-01-30T15:06:00;12.80;99.90
7317;DHT22;3699;51.462;6.696;2024-01-30T15:08:27;12.80;99.90
7317;DHT22;3699;51.462;6.696;2024-01-30T15:10:55;12.70;99.90
7317;DHT22;3699;51.462;6.696;2024-01-30T15:13:22;12.60;99.90
7317;DHT22;3699;51.462;6.696;2024-01-30T15:15:49;12.60;99.90
7317;DHT22;3699;51.462;6.696;2024-01-30T15:18:16;12.50;99.90
7317;DHT22;3699;51.462;6.696;2024-01-30T15:20:43;12.50;99.90
7317;DHT22;3699;51.462;6.696;2024-01-30T15:23:09;12.40;99.90
7317;DHT22;3699;51.462;6.696;2024-01-30T15:25:36;12.20;99.90
7317;DHT22;3699;51.462;6.696;2024-01-30T15:28:04;12.20;99.90
7317;DHT22;3699;51.462;6.696;2024-01-30T15:30:30;12.20;99.90
7317;DHT22;3699;51.462;6.696;2024-01-30T15:32:57;12.10;99.90
7317;DHT22;3699;51.462;6.696;2024-01-30T15:35:24;12.00;99.90
7317;DHT22;3699;51.462;6.696;2024-01-30T15:37:51;11.90;99.90
7317;DHT22;3699;51.462;6.696;2024-01-30T15:40:18;11.90;99.90
7317;DHT22;3699;51.462;6.696;2024-01-30T15:42:46;11.90;99.90
7317;DHT22;3699;51.462;6.696;2024-01-30T15:45:14;11.80;99.90
7317;DHT22;3699;51.462;6.696;2024-01-30T15:47:40;11.70;99.90
7317;DHT22;3699;51.462;6.696;2024-01-30T15:50:07;11.70;99.90
7317;DHT22;3699;51.462;6.696;2024-01-30T15:52:34;11.70;99.90
7317;DHT22;3699;51.462;6.696;2024-01-30T15:55:01;11.60;99.90
7317;DHT22;3699;51.462;6.696;2024-01-30T15:57:28;11.50;99.90
7317;DHT22;3699;51.462;6.696;2024-01-30T15:59:55;11.50;99.90
7317;DHT22;3699;51.462;6.696;2024-01-30T16:02:23;11.40;99.90
7317;DHT22;3699;51.462;6.696;2024-01-30T16:04:50;11.30;99.90
7317;DHT22;3699;51.462;6.696;2024-01-30T16:07:16;11.40;99.90
7317;DHT22;3699;51.462;6.696;2024-01-30T16:09:43;11.30;99.90
7317;DHT22;3699;51.462;6.696;2024-01-30T16:12:10;11.30;99.90
7317;DHT22;3699;51.462;6.696;2024-01-30T16:14:37;11.30;99.90